Time;durP1;ratioP1;P1;durP2;ratioP2;P2;SDS_P1;SDS_P2;PMS_P1;PMS_P2;Temp;Humidity;BMP_temperature;BMP_pressure;BME280_temperature;BME280_humidity;BME280_pressure;Samples;Min_cycle;Max_cycle;Signal;HPM_P1;HPM_P2
2023/10/05 00:03:31;;;;;;;;;;;;;;;21.75;57.64;101690.91;4901773;29;2168;-68
2023/10/05 00:06:13;;;;;;;;;;;;;;;21.75;57.96;101688.78;4900772;29;2180;-69
2023/10/05 00:08:49;;;;;;;;;;;;;;;21.75;57.62;101688.78;4901094;29;2152;-68
2023/10/05 00:11:31;;;;;;;;;;;;;;;21.75;57.63;101685.88;4901194;29;2307;-69
2023/10/05 00:13:59;;;;;;;;;;;;;;;21.74;57.93;101687.28;4898761;29;2122;-68
2023/10/05 00:16:37;;;;;;;;;;;;;;;21.75;57.68;101685.16;4900563;29;2066;-69
2023/10/05 00:19:11;;;;;;;;;;;;;;;21.74;57.91;101681.53;4900655;29;1622;-68
2023/10/05 00:21:50;;;;;;;;;;;;;;;21.74;57.90;101687.28;4900398;29;2247;-69
2023/10/05 00:24:31;;;;;;;;;;;;;;;21.73;57.97;101680.00;4900280;29;2153;-69
2023/10/05 00:26:58;;;;;;;;;;;;;;;21.73;58.06;101687.91;4901770;29;2116;-69
2023/10/05 00:29:28;;;;;;;;;;;;;;;21.70;57.71;101681.28;4900005;29;2215;-68
2023/10/05 00:31:59;;;;;;;;;;;;;;;21.72;57.89;101675.63;4886729;29;6101;-69
2023/10/05 00:34:30;;;;;;;;;;;;;;;21.70;57.74;101687.06;4901649;29;2156;-68
2023/10/05 00:36:57;;;;;;;;;;;;;;;21.71;57.70;101677.00;4900873;29;2648;-69
2023/10/05 00:39:24;;;;;;;;;;;;;;;21.71;57.70;101679.91;4900556;29;2216;-69
2023/10/05 00:42:08;;;;;;;;;;;;;;;21.70;57.69;101678.41;4882601;29;2153;-68
2023/10/05 00:44:36;;;;;;;;;;;;;;;21.71;57.96;101677.00;4884424;29;2277;-69
2023/10/05 00:47:06;;;;;;;;;;;;;;;21.71;57.92;101676.28;4882550;29;2103;-69
2023/10/05 00:49:51;;;;;;;;;;;;;;;21.71;57.93;101682.78;4882834;29;2079;-69
2023/10/05 00:52:24;;;;;;;;;;;;;;;21.72;57.89;101678.53;4884775;29;2225;-69
2023/10/05 00:54:51;;;;;;;;;;;;;;;21.72;57.60;101669.88;4900964;29;2185;-69
2023/10/05 00:57:23;;;;;;;;;;;;;;;21.72;57.77;101672.03;4898775;29;2264;-69
2023/10/05 01:02:32;;;;;;;;;;;;;;;21.72;57.74;101672.03;4900056;29;6158;-69
2023/10/05 01:05:14;;;;;;;;;;;;;;;21.70;57.60;101652.47;4900011;29;2196;-69
2023/10/05 01:07:49;;;;;;;;;;;;;;;21.72;57.87;101648.94;4899813;29;2402;-68
2023/10/05 01:10:27;;;;;;;;;;;;;;;21.71;57.99;101638.78;4880855;29;2176;-69
2023/10/05 01:12:55;;;;;;;;;;;;;;;21.70;57.95;101634.44;4899894;29;2195;-68
2023/10/05 01:15:22;;;;;;;;;;;;;;;21.70;57.82;101634.44;4879509;29;2673;-68
2023/10/05 01:17:51;;;;;;;;;;;;;;;21.70;57.67;101629.41;4896999;29;2168;-68
2023/10/05 01:22:45;;;;;;;;;;;;;;;21.70;57.96;101622.91;4899994;29;2755;-68
2023/10/05 01:25:14;;;;;;;;;;;;;;;21.69;57.98;101619.28;4896354;29;2247;-69
2023/10/05 01:27:43;;;;;;;;;;;;;;;21.70;57.59;101617.13;4896538;29;2054;-68
2023/10/05 01:30:12;;;;;;;;;;;;;;;21.69;57.83;101613.50;4894040;29;7327;-69
2023/10/05 01:32:42;;;;;;;;;;;;;;;21.68;57.59;101609.13;4881858;29;2267;-68
2023/10/05 01:35:08;;;;;;;;;;;;;;;21.70;57.78;101605.59;4884623;29;2224;-69
2023/10/05 01:37:39;;;;;;;;;;;;;;;21.67;57.55;101604.75;4899299;29;2269;-69
2023/10/05 01:42:47;;;;;;;;;;;;;;;21.69;57.85;101609.88;4897719;29;2184;-69
2023/10/05 01:45:16;;;;;;;;;;;;;;;21.67;57.60;101607.63;4898537;29;2209;-69
2023/10/05 01:47:46;;;;;;;;;;;;;;;21.68;57.73;101612.00;4899247;29;2168;-69
2023/10/05 01:50:19;;;;;;;;;;;;;;;21.67;57.57;101607.63;4881327;29;2171;-68
2023/10/05 01:52:47;;;;;;;;;;;;;;;21.67;57.54;101607.63;4881462;29;2110;-68
2023/10/05 01:55:14;;;;;;;;;;;;;;;21.67;57.84;101609.75;4897706;29;2176;-68
2023/10/05 01:57:42;;;;;;;;;;;;;;;21.67;57.68;101606.88;4898373;29;2252;-68
2023/10/05 02:00:14;;;;;;;;;;;;;;;21.68;57.86;101603.34;4864318;29;7183;-69
2023/10/05 02:02:43;;;;;;;;;;;;;;;21.66;57.82;101597.47;4898003;29;2262;-69
2023/10/05 02:05:10;;;;;;;;;;;;;;;21.66;57.59;101600.34;4898563;29;2540;-69
2023/10/05 02:07:38;;;;;;;;;;;;;;;21.65;57.54;101598.88;4898841;29;2215;-68
2023/10/05 02:10:09;;;;;;;;;;;;;;;21.66;57.63;101590.97;4897907;29;2215;-69
2023/10/05 02:12:36;;;;;;;;;;;;;;;21.67;57.53;101593.22;4895950;29;2327;-69
2023/10/05 02:15:06;;;;;;;;;;;;;;;21.66;57.73;101594.59;4896315;29;2200;-68
2023/10/05 02:17:34;;;;;;;;;;;;;;;21.65;57.63;101593.13;4881472;29;2170;-69
2023/10/05 02:20:00;;;;;;;;;;;;;;;21.66;57.89;101591.72;4880173;29;2162;-69
2023/10/05 02:22:27;;;;;;;;;;;;;;;21.65;57.57;101580.84;4897374;29;2168;-69
2023/10/05 02:24:55;;;;;;;;;;;;;;;21.65;57.41;101575.81;4899304;29;2188;-68
2023/10/05 02:27:26;;;;;;;;;;;;;;;21.65;57.74;101575.06;4894831;29;2109;-68
2023/10/05 02:29:53;;;;;;;;;;;;;;;21.64;57.61;101571.44;4896962;29;2333;-69
2023/10/05 02:32:21;;;;;;;;;;;;;;;21.64;57.74;101579.34;4897830;29;6656;-69
2023/10/05 02:34:59;;;;;;;;;;;;;;;21.64;57.39;101568.53;4897221;29;2136;-69
2023/10/05 02:37:32;;;;;;;;;;;;;;;21.64;57.42;101565.66;4897667;29;2357;-69
2023/10/05 02:39:59;;;;;;;;;;;;;;;21.64;57.74;101562.03;4894815;29;2173;-68
2023/10/05 02:42:25;;;;;;;;;;;;;;;21.64;57.47;101557.03;4895187;29;2191;-69
2023/10/05 02:44:53;;;;;;;;;;;;;;;21.63;57.56;101558.41;4899449;29;2215;-68
2023/10/05 02:47:23;;;;;;;;;;;;;;;21.63;57.71;101555.53;4881741;29;2158;-69
2023/10/05 02:49:50;;;;;;;;;;;;;;;21.62;57.57;101551.16;4881398;29;2106;-69
2023/10/05 02:52:16;;;;;;;;;;;;;;;21.62;57.49;101548.25;4902941;29;2179;-69
2023/10/05 02:54:44;;;;;;;;;;;;;;;21.62;57.43;101554.03;4901914;29;1985;-69
2023/10/05 02:57:11;;;;;;;;;;;;;;;21.62;57.63;101554.03;4882025;29;2254;-68
2023/10/05 02:59:37;;;;;;;;;;;;;;;21.62;57.36;101554.03;4884151;29;2080;-68
2023/10/05 03:02:07;;;;;;;;;;;;;;;21.62;57.50;101556.91;4883084;29;6108;-69
2023/10/05 03:04:57;;;;;;;;;;;;;;;21.62;57.75;101550.41;4883585;29;2071;-68
2023/10/05 03:07:25;;;;;;;;;;;;;;;21.61;57.53;101552.53;4882038;29;2231;-68
2023/10/05 03:09:59;;;;;;;;;;;;;;;21.62;57.69;101556.16;4898013;29;2188;-69
2023/10/05 03:12:32;;;;;;;;;;;;;;;21.61;57.38;101540.28;4884656;29;2201;-68
2023/10/05 03:15:07;;;;;;;;;;;;;;;21.62;57.55;101542.50;4902246;29;2172;-69
2023/10/05 03:17:37;;;;;;;;;;;;;;;21.61;57.74;101543.91;4885889;29;2186;-68
2023/10/05 03:20:15;;;;;;;;;;;;;;;21.61;57.73;101537.41;4883339;29;2207;-69
2023/10/05 03:22:41;;;;;;;;;;;;;;;21.61;57.61;101538.13;4901776;29;2115;-68
2023/10/05 03:25:08;;;;;;;;;;;;;;;21.60;57.52;101530.88;4883542;29;2170;-68
2023/10/05 03:27:36;;;;;;;;;;;;;;;21.61;57.54;101534.50;4889061;29;2156;-68
2023/10/05 03:30:06;;;;;;;;;;;;;;;21.60;57.42;101533.78;4883083;29;2099;-69
2023/10/05 03:32:35;;;;;;;;;;;;;;;21.60;57.41;101528.00;4883041;29;8090;-68
2023/10/05 03:35:03;;;;;;;;;;;;;;;21.60;57.56;101530.88;4885673;29;2213;-68
2023/10/05 03:37:31;;;;;;;;;;;;;;;21.59;57.65;101535.16;4881334;29;2621;-69
2023/10/05 03:42:31;;;;;;;;;;;;;;;21.60;57.58;101527.25;4900594;29;2172;-68
2023/10/05 03:45:02;;;;;;;;;;;;;;;21.59;57.60;101532.25;4885917;29;2094;-68
2023/10/05 03:47:30;;;;;;;;;;;;;;;21.59;57.60;101526.50;4901360;29;2240;-69
2023/10/05 03:49:57;;;;;;;;;;;;;;;21.59;57.69;101528.63;4884053;29;2195;-68
2023/10/05 03:52:29;;;;;;;;;;;;;;;21.58;57.69;101532.91;4882844;29;2102;-68
2023/10/05 03:55:09;;;;;;;;;;;;;;;21.58;57.70;101522.13;4900080;29;2171;-68
2023/10/05 03:57:37;;;;;;;;;;;;;;;21.57;57.35;101517.75;4898834;29;2378;-69
2023/10/05 04:02:48;;;;;;;;;;;;;;;21.57;57.46;101511.97;4887143;29;2444;-68
2023/10/05 04:05:18;;;;;;;;;;;;;;;21.57;57.63;101509.09;4902190;29;2133;-68
2023/10/05 04:07:45;;;;;;;;;;;;;;;21.57;57.60;101500.44;4889603;29;2158;-68
2023/10/05 04:10:20;;;;;;;;;;;;;;;21.56;57.47;101509.75;4901181;29;2254;-68
2023/10/05 04:12:48;;;;;;;;;;;;;;;21.55;57.30;101509.00;4901575;29;2100;-69
2023/10/05 04:15:18;;;;;;;;;;;;;;;21.56;57.39;101507.63;4901443;29;2263;-68
2023/10/05 04:17:45;;;;;;;;;;;;;;;21.56;57.16;101504.72;4882745;29;2190;-68
2023/10/05 04:20:19;;;;;;;;;;;;;;;21.56;57.45;101507.63;4900893;29;1997;-68
2023/10/05 04:22:47;;;;;;;;;;;;;;;21.54;57.31;101496.72;4900938;29;2633;-68
2023/10/05 04:25:16;;;;;;;;;;;;;;;21.56;57.27;101495.34;4901184;29;2232;-68
2023/10/05 04:27:46;;;;;;;;;;;;;;;21.55;57.27;101494.56;4900181;29;2125;-68
2023/10/05 04:30:16;;;;;;;;;;;;;;;21.54;57.52;101490.97;4883172;29;6361;-68
2023/10/05 04:32:43;;;;;;;;;;;;;;;21.55;57.32;101491.69;4900027;29;2021;-68
2023/10/05 04:35:29;;;;;;;;;;;;;;;21.54;57.10;101496.72;4901274;29;2180;-69
2023/10/05 04:37:56;;;;;;;;;;;;;;;21.54;57.41;101493.09;4900373;29;2117;-68
2023/10/05 04:40:24;;;;;;;;;;;;;;;21.54;57.54;101496.72;4882596;29;2138;-68
2023/10/05 04:42:51;;;;;;;;;;;;;;;21.08;55.49;101483.47;4900269;29;2089;-71
2023/10/05 04:45:20;;;;;;;;;;;;;;;20.97;55.24;101485.06;4901197;29;1990;-70
2023/10/05 04:47:48;;;;;;;;;;;;;;;21.24;55.03;101474.94;4886263;29;2186;-70
2023/10/05 04:50:17;;;;;;;;;;;;;;;21.38;55.28;101483.59;4901398;29;2160;-71
2023/10/05 04:52:50;;;;;;;;;;;;;;;21.48;56.35;101484.13;4901356;29;2128;-73
2023/10/05 04:55:23;;;;;;;;;;;;;;;21.49;56.15;101477.00;4883585;29;2280;-72
2023/10/05 04:57:52;;;;;;;;;;;;;;;21.49;56.41;101471.22;4899912;29;2251;-72
2023/10/05 05:08:22;;;;;;;;;;;;;;;21.50;56.86;101464.06;4898182;29;2109;-73
2023/10/05 05:10:49;;;;;;;;;;;;;;;21.49;56.74;101460.44;4899228;29;2144;-72
2023/10/05 05:13:15;;;;;;;;;;;;;;;21.48;56.94;101458.94;4898295;29;2144;-72
2023/10/05 05:15:42;;;;;;;;;;;;;;;21.49;56.80;101456.81;4899899;29;2044;-72
2023/10/05 05:18:14;;;;;;;;;;;;;;;21.49;56.72;101453.94;4899471;29;2148;-72
2023/10/05 05:20:42;;;;;;;;;;;;;;;21.49;56.76;101448.19;4883569;29;2140;-71
2023/10/05 05:23:10;;;;;;;;;;;;;;;21.49;57.03;101448.91;4898286;29;2149;-72
2023/10/05 05:25:37;;;;;;;;;;;;;;;21.48;56.80;101446.66;4898349;29;2470;-72
2023/10/05 05:28:05;;;;;;;;;;;;;;;21.51;58.22;101451.16;4904969;29;2519;-71
2023/10/05 05:30:32;;;;;;;;;;;;;;;21.69;59.93;101443.44;4902197;29;6581;-74
2023/10/05 05:33:17;;;;;;;;;;;;;;;21.69;57.85;101443.44;5054710;28;2117;-72
2023/10/05 05:35:45;;;;;;;;;;;;;;;21.72;57.45;101452.94;5036750;28;2007;-72
2023/10/05 05:38:11;;;;;;;;;;;;;;;21.73;57.41;101446.50;5037942;28;2005;-73
2023/10/05 05:40:38;;;;;;;;;;;;;;;21.76;57.13;101447.34;5039241;28;2013;-72
2023/10/05 05:43:08;;;;;;;;;;;;;;;21.77;56.89;101439.47;5037060;28;2142;-74
2023/10/05 05:45:39;;;;;;;;;;;;;;;21.87;57.24;101437.81;5036874;28;2265;-75
2023/10/05 05:48:09;;;;;;;;;;;;;;;21.92;56.84;101442.41;5037619;28;1850;-73
2023/10/05 05:50:39;;;;;;;;;;;;;;;21.95;56.87;101441.13;5036794;28;2111;-72
2023/10/05 05:53:07;;;;;;;;;;;;;;;21.99;56.38;101442.69;5034659;28;2111;-75
2023/10/05 05:55:33;;;;;;;;;;;;;;;21.72;56.76;101453.69;5037464;28;2144;-71
2023/10/05 05:58:00;;;;;;;;;;;;;;;21.92;57.04;101465.47;5038672;28;2126;-71
2023/10/05 06:00:28;;;;;;;;;;;;;;;22.04;56.45;101450.91;5033542;28;6311;-72
2023/10/05 06:02:55;;;;;;;;;;;;;;;22.13;56.52;101449.19;5036389;28;2282;-71
2023/10/05 06:05:24;;;;;;;;;;;;;;;22.00;56.03;101444.94;5038770;28;2090;-73
2023/10/05 06:07:50;;;;;;;;;;;;;;;22.02;56.29;101450.06;5037361;28;2367;-72
2023/10/05 06:10:17;;;;;;;;;;;;;;;22.09;56.44;101448.97;5034503;28;2188;-71
2023/10/05 06:12:45;;;;;;;;;;;;;;;22.17;56.28;101453.00;5035766;28;2228;-74
2023/10/05 06:15:13;;;;;;;;;;;;;;;22.00;55.98;101447.81;5040299;28;2648;-74
2023/10/05 06:17:40;;;;;;;;;;;;;;;22.06;56.45;101448.13;5035074;28;3858;-86
2023/10/05 06:20:13;;;;;;;;;;;;;;;22.17;56.04;101450.13;5042286;28;2468;-80
2023/10/05 06:22:44;;;;;;;;;;;;;;;22.14;56.42;101456.41;5038016;28;2476;-81
2023/10/05 06:25:17;;;;;;;;;;;;;;;22.11;55.83;101455.59;5036946;28;3582;-82
2023/10/05 06:27:44;;;;;;;;;;;;;;;22.12;56.10;101448.41;5036377;28;2525;-80
2023/10/05 06:30:11;;;;;;;;;;;;;;;22.01;55.94;101452.19;5033362;28;6042;-81
2023/10/05 06:32:37;;;;;;;;;;;;;;;21.88;56.66;101447.22;5049340;28;3374;-76
2023/10/05 06:35:08;;;;;;;;;;;;;;;21.86;56.30;101455.78;5048642;28;2285;-85
2023/10/05 06:37:38;;;;;;;;;;;;;;;21.81;56.23;101443.31;5047728;28;3082;-87
2023/10/05 06:40:09;;;;;;;;;;;;;;;21.70;55.90;101444.94;5053641;28;2756;-84
2023/10/05 06:42:39;;;;;;;;;;;;;;;21.82;55.78;101449.81;5048221;28;2987;-87
2023/10/05 06:45:07;;;;;;;;;;;;;;;21.74;55.35;101456.66;5043319;28;2699;-84
2023/10/05 06:47:37;;;;;;;;;;;;;;;21.71;55.08;101452.16;5041807;28;2866;-80
2023/10/05 06:50:13;;;;;;;;;;;;;;;21.61;55.00;101453.81;5043337;28;3976;-85
2023/10/05 06:52:40;;;;;;;;;;;;;;;21.98;54.41;101444.09;5042361;28;2336;-80
2023/10/05 06:55:07;;;;;;;;;;;;;;;22.07;53.90;101452.50;5020118;28;3417;-82
2023/10/05 06:57:35;;;;;;;;;;;;;;;21.93;53.83;101454.69;5041410;28;4272;-83
2023/10/05 07:00:11;;;;;;;;;;;;;;;21.81;53.51;101442.56;5039230;28;3803;-83
2023/10/05 07:02:38;;;;;;;;;;;;;;;21.95;52.80;101446.13;5025397;28;6367;-88
2023/10/05 07:05:08;;;;;;;;;;;;;;;21.99;52.58;101445.56;5043152;28;2497;-81
2023/10/05 07:07:35;;;;;;;;;;;;;;;22.02;52.31;101444.31;5043771;28;1670;-91
2023/10/05 07:10:03;;;;;;;;;;;;;;;21.83;52.27;101454.94;5041724;28;2604;-84
2023/10/05 07:12:41;;;;;;;;;;;;;;;21.72;52.66;101453.69;5046508;28;2403;-82
2023/10/05 07:15:08;;;;;;;;;;;;;;;21.83;52.20;101451.28;5043279;28;2290;-82
2023/10/05 07:17:35;;;;;;;;;;;;;;;21.82;51.96;101455.56;5027470;28;1647;-89
2023/10/05 07:20:03;;;;;;;;;;;;;;;21.75;52.11;101458.16;5041823;28;2552;-82
2023/10/05 07:22:30;;;;;;;;;;;;;;;21.77;52.09;101469.03;5042481;28;2500;-72
2023/10/05 07:24:57;;;;;;;;;;;;;;;21.78;52.40;101472.66;5039746;28;2229;-72
2023/10/05 07:27:23;;;;;;;;;;;;;;;21.89;52.10;101471.78;5025134;28;2464;-74
2023/10/05 07:29:49;;;;;;;;;;;;;;;21.96;51.80;101488.00;5040970;28;2432;-72
2023/10/05 07:32:16;;;;;;;;;;;;;;;21.92;52.10;101487.78;5040648;28;6093;-70
2023/10/05 07:34:43;;;;;;;;;;;;;;;21.71;51.95;101483.88;5041387;28;2647;-72
2023/10/05 07:37:10;;;;;;;;;;;;;;;21.69;52.42;101483.81;5039220;28;2563;-70
2023/10/05 07:39:38;;;;;;;;;;;;;;;21.74;52.60;101496.28;5039619;28;2857;-71
2023/10/05 07:42:04;;;;;;;;;;;;;;;21.63;52.86;101491.38;5040489;28;2610;-71
2023/10/05 07:44:31;;;;;;;;;;;;;;;21.73;52.64;101500.53;5041224;28;2479;-72
2023/10/05 07:46:57;;;;;;;;;;;;;;;21.80;52.02;101505.22;5052215;28;2405;-72
2023/10/05 07:49:24;;;;;;;;;;;;;;;21.86;52.06;101508.41;5043138;28;2914;-72
2023/10/05 07:51:51;;;;;;;;;;;;;;;21.92;51.77;101510.84;5041274;28;2514;-75
2023/10/05 07:54:17;;;;;;;;;;;;;;;21.95;51.70;101509.59;5045377;28;2653;-73
2023/10/05 07:56:45;;;;;;;;;;;;;;;21.88;51.92;101516.44;5042777;28;2576;-73
2023/10/05 07:59:14;;;;;;;;;;;;;;;21.87;51.77;101521.44;5042799;28;2409;-73
2023/10/05 08:01:40;;;;;;;;;;;;;;;21.79;51.83;101520.28;5041737;28;6276;-74
2023/10/05 08:04:11;;;;;;;;;;;;;;;21.79;51.52;101523.19;5037042;28;2424;-72
2023/10/05 08:06:39;;;;;;;;;;;;;;;21.72;51.62;101522.84;5037883;28;2449;-73
2023/10/05 08:09:06;;;;;;;;;;;;;;;21.71;51.61;101527.13;5037336;28;2404;-74
2023/10/05 08:11:33;;;;;;;;;;;;;;;21.65;51.61;101523.94;5036573;28;2396;-74
2023/10/05 08:13:59;;;;;;;;;;;;;;;21.67;51.81;101526.94;5038688;28;2607;-74
2023/10/05 08:16:25;;;;;;;;;;;;;;;21.69;51.83;101535.69;5039684;28;2354;-73
2023/10/05 08:18:52;;;;;;;;;;;;;;;21.70;51.45;101537.16;5037406;28;2365;-72
2023/10/05 08:21:18;;;;;;;;;;;;;;;21.64;51.84;101533.97;5039389;28;2303;-72
2023/10/05 08:23:45;;;;;;;;;;;;;;;21.70;51.92;101531.41;5040323;28;2283;-73
2023/10/05 08:26:12;;;;;;;;;;;;;;;21.63;52.07;101526.72;5037684;28;2392;-77
2023/10/05 08:28:39;;;;;;;;;;;;;;;21.68;52.37;101516.88;5035023;28;2428;-72
2023/10/05 08:31:06;;;;;;;;;;;;;;;21.79;52.04;101526.06;5039333;28;6514;-70
2023/10/05 08:33:37;;;;;;;;;;;;;;;21.94;51.78;101526.13;5043483;28;2374;-74
2023/10/05 08:36:06;;;;;;;;;;;;;;;21.88;51.43;101531.59;5022719;28;2508;-69
2023/10/05 08:38:34;;;;;;;;;;;;;;;21.87;51.75;101527.19;5041439;28;2502;-72
2023/10/05 08:41:11;;;;;;;;;;;;;;;21.95;51.82;101542.03;5040034;28;2412;-72
2023/10/05 08:43:38;;;;;;;;;;;;;;;21.92;51.73;101528.16;5020461;28;2421;-67
2023/10/05 08:46:05;;;;;;;;;;;;;;;21.96;52.11;101539.91;5034326;28;2421;-72
2023/10/05 08:51:06;;;;;;;;;;;;;;;22.07;51.97;101532.50;5021716;28;2507;-71
2023/10/05 08:53:33;;;;;;;;;;;;;;;22.10;52.19;101531.22;5034610;28;2475;-72
2023/10/05 08:55:59;;;;;;;;;;;;;;;22.12;52.32;101526.28;5021709;28;2425;-69
2023/10/05 08:58:28;;;;;;;;;;;;;;;22.10;52.53;101531.94;5036082;28;2367;-69
2023/10/05 09:01:00;;;;;;;;;;;;;;;22.31;52.85;101521.44;5038339;28;6402;-70
2023/10/05 09:03:37;;;;;;;;;;;;;;;22.42;52.59;101522.69;5036898;28;2460;-70
2023/10/05 09:06:13;;;;;;;;;;;;;;;22.43;52.28;101513.41;5010234;28;2501;-71
2023/10/05 09:08:40;;;;;;;;;;;;;;;22.41;52.52;101513.28;5040040;28;2364;-70
2023/10/05 09:11:09;;;;;;;;;;;;;;;22.42;52.57;101514.78;5040552;28;2179;-70
2023/10/05 09:13:44;;;;;;;;;;;;;;;22.49;52.67;101513.66;5037928;28;2440;-71
2023/10/05 09:16:15;;;;;;;;;;;;;;;22.56;52.78;101515.47;5032315;28;2256;-70
2023/10/05 09:18:47;;;;;;;;;;;;;;;22.57;52.50;101522.72;5017500;28;2667;-69
2023/10/05 09:21:18;;;;;;;;;;;;;;;22.57;53.04;101516.94;5039181;28;2215;-70
2023/10/05 09:23:44;;;;;;;;;;;;;;;22.60;52.87;101512.03;5039245;28;2380;-70
2023/10/05 09:26:38;;;;;;;;;;;;;;;22.66;53.09;101508.69;5036573;28;2439;-70
2023/10/05 09:29:24;;;;;;;;;;;;;;;22.51;52.65;101522.44;5037543;28;2511;-71
2023/10/05 09:31:50;;;;;;;;;;;;;;;22.42;53.24;101532.09;5024504;28;6372;-70
2023/10/05 09:34:19;;;;;;;;;;;;;;;22.34;53.57;101528.81;5007972;28;2586;-71
2023/10/05 09:36:46;;;;;;;;;;;;;;;22.54;53.54;101521.16;5019522;28;2377;-70
2023/10/05 09:39:14;;;;;;;;;;;;;;;22.59;53.21;101524.97;5022185;28;2532;-70
2023/10/05 09:41:41;;;;;;;;;;;;;;;22.62;53.45;101538.09;5041076;28;2286;-70
2023/10/05 09:44:07;;;;;;;;;;;;;;;22.63;52.98;101530.19;5021006;28;2164;-75
2023/10/05 09:46:34;;;;;;;;;;;;;;;22.45;53.60;101542.34;5022298;28;2248;-76
2023/10/05 09:49:02;;;;;;;;;;;;;;;22.20;53.53;101537.50;5022180;28;2339;-75
2023/10/05 09:51:29;;;;;;;;;;;;;;;22.16;53.43;101540.19;5025045;28;2227;-76
2023/10/05 09:53:56;;;;;;;;;;;;;;;22.17;53.42;101538.78;5037785;28;2432;-75
2023/10/05 09:56:25;;;;;;;;;;;;;;;22.12;53.68;101549.38;5003885;28;2550;-73
2023/10/05 09:59:15;;;;;;;;;;;;;;;22.37;53.36;101547.72;5023393;28;2473;-76
2023/10/05 10:01:42;;;;;;;;;;;;;;;22.44;53.55;101543.72;5039747;28;6212;-74
2023/10/05 10:04:09;;;;;;;;;;;;;;;22.41;53.38;101547.91;5038395;28;2441;-72
2023/10/05 10:06:35;;;;;;;;;;;;;;;22.35;53.46;101550.50;5036506;28;2541;-72
2023/10/05 10:09:10;;;;;;;;;;;;;;;22.41;53.66;101553.69;5022699;28;2912;-72
2023/10/05 10:11:36;;;;;;;;;;;;;;;22.50;53.63;101546.91;5039682;28;2401;-72
2023/10/05 10:14:06;;;;;;;;;;;;;;;22.47;53.76;101547.47;5024790;28;2184;-70
2023/10/05 10:16:41;;;;;;;;;;;;;;;22.47;53.92;101556.13;5034810;28;2495;-69
2023/10/05 10:19:20;;;;;;;;;;;;;;;22.45;53.86;101562.56;5036696;28;2462;-69
2023/10/05 10:21:59;;;;;;;;;;;;;;;22.61;53.75;101541.63;5040280;28;2593;-71
2023/10/05 10:24:29;;;;;;;;;;;;;;;22.66;53.42;101549.84;5041266;28;2236;-71
2023/10/05 10:27:15;;;;;;;;;;;;;;;22.70;53.97;101549.28;5020392;28;2546;-85
2023/10/05 10:29:47;;;;;;;;;;;;;;;22.66;53.43;101544.06;5039297;28;2377;-74
2023/10/05 10:32:31;;;;;;;;;;;;;;;22.63;53.93;101554.03;5038433;28;6631;-74
2023/10/05 10:35:09;;;;;;;;;;;;;;;22.70;53.64;101557.94;5026709;28;2642;-74
2023/10/05 10:37:39;;;;;;;;;;;;;;;22.54;53.79;101561.56;5039420;28;2428;-73
2023/10/05 10:42:53;;;;;;;;;;;;;;;22.45;54.17;101571.22;5024732;28;2166;-74
2023/10/05 10:45:29;;;;;;;;;;;;;;;22.27;54.48;101570.31;5037878;28;2393;-72
2023/10/05 10:47:56;;;;;;;;;;;;;;;22.06;54.60;101566.38;5037576;28;2325;-73
2023/10/05 10:50:37;;;;;;;;;;;;;;;22.07;54.33;101570.75;5021972;28;2749;-72
2023/10/05 10:53:16;;;;;;;;;;;;;;;22.06;54.43;101583.69;5038973;28;2153;-72
2023/10/05 10:56:04;;;;;;;;;;;;;;;21.99;54.29;101573.22;5041731;28;2150;-72
2023/10/05 10:58:32;;;;;;;;;;;;;;;22.00;54.44;101566.06;5038688;28;2089;-72
2023/10/05 11:01:13;;;;;;;;;;;;;;;22.02;54.50;101565.44;5037890;28;6857;-72
2023/10/05 11:03:41;;;;;;;;;;;;;;;21.99;54.71;101567.47;5041569;28;2490;-73
2023/10/05 11:06:09;;;;;;;;;;;;;;;21.93;54.84;101565.00;5040409;28;2121;-67
2023/10/05 11:08:43;;;;;;;;;;;;;;;22.00;54.40;101568.22;5040906;28;2045;-75
2023/10/05 11:11:15;;;;;;;;;;;;;;;21.95;54.78;101570.13;5039947;28;2342;-74
2023/10/05 11:14:00;;;;;;;;;;;;;;;22.14;54.36;101578.31;5025638;28;2400;-81
2023/10/05 11:16:45;;;;;;;;;;;;;;;22.16;54.34;101584.19;5043566;28;2198;-81
2023/10/05 11:19:24;;;;;;;;;;;;;;;22.43;53.98;101584.81;5042086;28;2386;-75
2023/10/05 11:22:04;;;;;;;;;;;;;;;22.52;53.55;101598.97;5040860;28;2317;-75
2023/10/05 11:24:40;;;;;;;;;;;;;;;22.58;53.63;101607.19;5044123;28;2355;-75
2023/10/05 11:27:14;;;;;;;;;;;;;;;22.51;53.50;101593.84;5039721;28;2353;-76
2023/10/05 11:29:48;;;;;;;;;;;;;;;22.53;53.28;101609.13;5043195;28;2456;-78
2023/10/05 11:32:23;;;;;;;;;;;;;;;22.42;53.86;101601.34;5041415;28;6374;-75
2023/10/05 11:35:13;;;;;;;;;;;;;;;22.41;53.69;101611.41;5043220;28;2430;-77
2023/10/05 11:37:58;;;;;;;;;;;;;;;22.54;53.51;101607.75;5041638;28;1765;-75
2023/10/05 11:40:31;;;;;;;;;;;;;;;22.56;53.53;101604.97;5041059;28;2190;-73
2023/10/05 11:42:58;;;;;;;;;;;;;;;22.57;53.84;101597.78;5037358;28;2376;-74
2023/10/05 11:45:24;;;;;;;;;;;;;;;22.61;53.26;101599.34;5040445;28;1547;-72
2023/10/05 11:47:54;;;;;;;;;;;;;;;22.65;53.48;101588.00;5022880;28;2418;-73
2023/10/05 11:50:25;;;;;;;;;;;;;;;22.65;53.10;101591.66;5037758;28;2538;-72
2023/10/05 11:52:55;;;;;;;;;;;;;;;22.63;53.36;101590.81;5037644;28;2397;-71
2023/10/05 11:55:21;;;;;;;;;;;;;;;22.59;53.29;101600.75;5039347;28;2306;-71
2023/10/05 11:57:48;;;;;;;;;;;;;;;22.61;53.52;101593.59;5041299;28;1846;-70
2023/10/05 12:00:17;;;;;;;;;;;;;;;22.56;53.43;101592.66;5040179;28;6273;-71
2023/10/05 12:02:43;;;;;;;;;;;;;;;22.59;53.36;101597.88;5024446;28;2453;-71
2023/10/05 12:05:10;;;;;;;;;;;;;;;22.46;53.87;101595.78;5039803;28;2396;-69
2023/10/05 12:07:41;;;;;;;;;;;;;;;22.41;54.20;101599.88;5038725;28;2443;-69
2023/10/05 12:10:09;;;;;;;;;;;;;;;22.37;54.12;101600.41;5039053;28;2451;-69
2023/10/05 12:12:37;;;;;;;;;;;;;;;22.44;53.84;101603.59;5024594;28;1923;-71
2023/10/05 12:15:12;;;;;;;;;;;;;;;22.63;53.73;101605.22;5038966;28;2515;-74
2023/10/05 12:17:39;;;;;;;;;;;;;;;22.77;53.35;101612.47;5022909;28;2385;-73
2023/10/05 12:20:07;;;;;;;;;;;;;;;22.50;53.54;101607.53;5039421;28;2338;-71
2023/10/05 12:22:37;;;;;;;;;;;;;;;22.61;53.50;101603.00;5030372;28;2210;-73
2023/10/05 12:25:07;;;;;;;;;;;;;;;22.67;53.40;101608.31;5041125;28;2251;-73
2023/10/05 12:27:35;;;;;;;;;;;;;;;22.53;53.76;101614.88;5037510;28;2315;-72
2023/10/05 12:30:16;;;;;;;;;;;;;;;22.53;53.77;101600.47;5026881;28;2288;-72
2023/10/05 12:32:42;;;;;;;;;;;;;;;22.33;54.13;101611.00;5041205;28;7300;-74
2023/10/05 12:35:16;;;;;;;;;;;;;;;22.31;54.08;101608.00;5041675;28;2236;-73
2023/10/05 12:37:47;;;;;;;;;;;;;;;22.24;54.23;101594.66;5039828;28;2442;-73
2023/10/05 12:40:26;;;;;;;;;;;;;;;22.41;54.26;101594.09;5039453;28;2142;-71
2023/10/05 12:42:53;;;;;;;;;;;;;;;22.51;54.02;101600.34;5040847;28;2444;-71
2023/10/05 12:45:39;;;;;;;;;;;;;;;22.48;54.19;101598.78;5043103;28;2259;-72
2023/10/05 12:48:06;;;;;;;;;;;;;;;22.52;54.16;101592.47;5038371;28;2476;-73
2023/10/05 12:50:33;;;;;;;;;;;;;;;22.50;54.08;101590.22;5041573;28;2306;-73
2023/10/05 12:52:59;;;;;;;;;;;;;;;22.56;54.12;101589.75;5040666;28;2621;-73
2023/10/05 12:55:32;;;;;;;;;;;;;;;22.49;54.00;101588.72;5041170;28;2371;-74
2023/10/05 12:57:58;;;;;;;;;;;;;;;22.59;53.53;101597.88;5039635;28;2745;-79
2023/10/05 13:00:28;;;;;;;;;;;;;;;22.63;53.71;101603.13;5040658;28;6206;-78
2023/10/05 13:02:55;;;;;;;;;;;;;;;22.69;53.75;101612.06;5025544;28;2342;-79
2023/10/05 13:05:22;;;;;;;;;;;;;;;22.72;53.54;101631.00;5039171;28;2302;-72
2023/10/05 13:07:57;;;;;;;;;;;;;;;22.47;53.87;101642.69;5043111;28;3214;-75
2023/10/05 13:10:26;;;;;;;;;;;;;;;22.32;54.38;101656.41;5047758;28;1793;-72
2023/10/05 13:12:53;;;;;;;;;;;;;;;22.27;54.13;101671.28;5046554;28;2494;-73
2023/10/05 13:15:24;;;;;;;;;;;;;;;22.46;54.01;101673.72;5032589;28;2588;-72
2023/10/05 13:17:51;;;;;;;;;;;;;;;22.58;53.60;101685.13;5046275;28;2098;-75
2023/10/05 13:20:24;;;;;;;;;;;;;;;22.63;53.83;101694.72;5042603;28;2495;-71
2023/10/05 13:22:53;;;;;;;;;;;;;;;22.49;53.58;101694.75;5027614;28;2350;-73
2023/10/05 13:25:22;;;;;;;;;;;;;;;22.32;54.00;101701.84;5048000;28;2361;-76
2023/10/05 13:27:49;;;;;;;;;;;;;;;22.28;54.15;101690.81;5028109;28;2001;-71
2023/10/05 13:30:22;;;;;;;;;;;;;;;22.18;54.39;101691.03;5027660;28;6698;-71
2023/10/05 13:32:57;;;;;;;;;;;;;;;22.14;54.66;101675.66;5044881;28;2396;-71